Time;durP1;ratioP1;P1;durP2;ratioP2;P2;SDS_P1;SDS_P2;PMS_P1;PMS_P2;Temp;Humidity;BMP_temperature;BMP_pressure;BME280_temperature;BME280_humidity;BME280_pressure;Samples;Min_cycle;Max_cycle;Signal;HPM_P1;HPM_P2
2023/03/21 00:01:03;;;;;;;1.80;0.60;;;18.40;47.50;;;;;;4940911;29;20488;-83
2023/03/21 00:03:32;;;;;;;3.28;0.73;;;18.40;47.50;;;;;;4939097;29;20187;-82
2023/03/21 00:05:58;;;;;;;4.53;0.65;;;18.30;47.50;;;;;;4907972;29;20179;-82
2023/03/21 00:08:26;;;;;;;2.15;0.65;;;18.30;47.50;;;;;;4907489;29;20219;-83
2023/03/21 00:11:00;;;;;;;2.15;0.77;;;18.30;47.50;;;;;;4923500;29;20155;-82
2023/03/21 00:13:31;;;;;;;2.30;0.70;;;18.30;47.50;;;;;;4908301;29;20192;-82
2023/03/21 00:16:08;;;;;;;1.77;0.80;;;18.30;47.50;;;;;;4938769;29;20171;-82
2023/03/21 00:18:35;;;;;;;2.25;0.70;;;18.30;47.50;;;;;;4939212;29;20223;-82
2023/03/21 00:21:03;;;;;;;2.15;0.60;;;18.30;47.60;;;;;;4939291;29;20607;-83
2023/03/21 00:23:32;;;;;;;0.88;0.57;;;18.20;47.60;;;;;;4923821;29;20207;-82
2023/03/21 00:25:58;;;;;;;1.08;0.57;;;18.30;47.60;;;;;;4924074;29;20183;-82
2023/03/21 00:28:24;;;;;;;3.45;0.60;;;18.30;47.70;;;;;;4923845;29;20199;-82
2023/03/21 00:30:56;;;;;;;1.13;0.55;;;18.20;47.70;;;;;;4908425;29;20163;-82
2023/03/21 00:33:24;;;;;;;1.13;0.52;;;18.30;47.70;;;;;;4940495;29;20584;-82
2023/03/21 00:35:51;;;;;;;1.40;0.70;;;18.20;47.70;;;;;;4939868;29;20168;-82
2023/03/21 00:38:17;;;;;;;0.85;0.57;;;18.20;47.70;;;;;;4907861;29;20192;-82
2023/03/21 00:40:43;;;;;;;1.02;0.65;;;18.20;47.70;;;;;;4924029;29;20166;-82
2023/03/21 00:43:10;;;;;;;2.03;0.63;;;18.30;47.80;;;;;;4924050;29;20219;-82
2023/03/21 00:45:36;;;;;;;2.67;0.70;;;18.20;47.80;;;;;;4924013;29;20164;-82
2023/03/21 00:48:03;;;;;;;1.77;0.80;;;18.20;47.80;;;;;;4939933;29;20160;-83
2023/03/21 00:50:31;;;;;;;1.73;0.70;;;18.30;47.90;;;;;;4939191;29;20587;-82
2023/03/21 00:52:57;;;;;;;1.95;0.50;;;18.20;47.80;;;;;;4907916;29;20193;-83
2023/03/21 00:55:25;;;;;;;2.10;0.70;;;18.20;47.90;;;;;;4924139;29;20171;-83
2023/03/21 00:57:51;;;;;;;1.70;0.63;;;18.20;47.90;;;;;;4923229;29;20230;-82
2023/03/21 01:00:17;;;;;;;2.00;1.15;;;18.20;47.90;;;;;;4923203;29;20175;-83
2023/03/21 01:03:04;;;;;;;0.70;0.50;;;18.20;47.90;;;;;;4938572;29;20191;-82
2023/03/21 01:08:11;;;;;;;0.75;0.52;;;18.20;48.00;;;;;;4921898;29;20182;-83
2023/03/21 01:10:39;;;;;;;1.55;0.70;;;18.20;48.00;;;;;;4939885;29;20262;-82
2023/03/21 01:13:06;;;;;;;2.88;0.65;;;18.20;48.00;;;;;;4939575;29;20187;-83
2023/03/21 01:15:35;;;;;;;1.35;0.68;;;18.20;47.90;;;;;;4942183;29;20167;-82
2023/03/21 01:18:03;;;;;;;0.88;0.40;;;18.20;47.90;;;;;;4927471;29;20208;-82
2023/03/21 01:20:30;;;;;;;1.40;0.70;;;18.30;47.90;;;;;;4927575;29;20179;-82
2023/03/21 01:22:56;;;;;;;2.45;0.77;;;18.20;47.90;;;;;;4927258;29;20190;-83
2023/03/21 01:25:23;;;;;;;1.00;0.60;;;18.20;48.00;;;;;;4926795;29;20167;-82
2023/03/21 01:27:53;;;;;;;1.48;0.65;;;18.20;47.90;;;;;;4927630;29;20195;-83
2023/03/21 01:30:20;;;;;;;1.20;0.70;;;18.20;47.90;;;;;;4943055;29;20176;-82
2023/03/21 01:32:51;;;;;;;1.00;0.90;;;18.20;48.00;;;;;;4942446;29;20175;-82
2023/03/21 01:35:17;;;;;;;3.50;0.60;;;18.20;47.90;;;;;;4910938;29;20647;-83
2023/03/21 01:37:42;;;;;;;1.45;0.52;;;18.20;47.90;;;;;;4910123;29;20183;-82
2023/03/21 01:40:12;;;;;;;3.38;0.70;;;18.20;48.00;;;;;;4895329;29;20654;-82
2023/03/21 01:42:46;;;;;;;1.35;0.50;;;18.20;48.00;;;;;;4910238;29;20266;-82
2023/03/21 01:45:42;;;;;;;2.22;0.60;;;18.10;47.90;;;;;;4910246;29;20255;-82
2023/03/21 01:48:10;;;;;;;3.42;0.85;;;18.10;48.00;;;;;;4910694;29;20187;-83
2023/03/21 01:50:38;;;;;;;3.47;0.73;;;18.10;48.10;;;;;;4909854;29;20171;-82
2023/03/21 01:53:04;;;;;;;2.28;0.70;;;18.10;48.10;;;;;;4895004;29;20251;-82
2023/03/21 01:55:29;;;;;;;1.30;0.70;;;18.10;48.10;;;;;;4910008;29;20220;-83
2023/03/21 01:57:55;;;;;;;1.05;0.70;;;18.10;48.20;;;;;;4908018;29;20246;-82
2023/03/21 02:00:23;;;;;;;2.47;0.60;;;18.10;48.20;;;;;;4928775;29;20167;-81
2023/03/21 02:02:50;;;;;;;1.33;0.80;;;18.10;48.10;;;;;;4944283;29;20206;-81
2023/03/21 02:05:18;;;;;;;2.15;0.60;;;18.10;48.10;;;;;;4928416;29;20183;-82
2023/03/21 02:07:46;;;;;;;3.80;0.80;;;18.10;48.10;;;;;;4928437;29;20183;-82
2023/03/21 02:10:14;;;;;;;1.00;0.50;;;18.10;48.10;;;;;;4944663;29;20189;-82
2023/03/21 02:12:40;;;;;;;0.60;0.50;;;18.10;48.10;;;;;;4944476;29;20174;-82
2023/03/21 02:15:07;;;;;;;1.10;0.50;;;18.10;48.20;;;;;;4944498;29;20169;-82
2023/03/21 02:17:40;;;;;;;1.08;0.60;;;18.10;48.20;;;;;;4927910;29;20189;-83
2023/03/21 02:20:39;;;;;;;2.08;0.60;;;18.10;48.20;;;;;;4896432;29;20653;-82
2023/03/21 02:23:29;;;;;;;1.92;0.60;;;18.10;48.20;;;;;;4912994;29;20217;-82
2023/03/21 02:26:12;;;;;;;3.72;0.85;;;18.10;48.20;;;;;;4912444;29;20151;-83
2023/03/21 02:28:44;;;;;;;0.90;0.65;;;18.10;48.20;;;;;;4914069;29;20634;-82
2023/03/21 02:31:21;;;;;;;0.85;0.50;;;18.10;48.20;;;;;;4912548;29;20211;-82
2023/03/21 02:34:27;;;;;;;0.70;0.60;;;18.10;48.30;;;;;;4912075;29;20178;-83
2023/03/21 02:37:20;;;;;;;1.50;0.70;;;18.10;48.30;;;;;;4927802;29;20234;-83
2023/03/21 02:39:53;;;;;;;4.40;1.10;;;18.00;48.30;;;;;;4926906;29;20635;-82
2023/03/21 02:42:27;;;;;;;2.95;0.60;;;18.10;48.30;;;;;;4912237;29;20692;-82
2023/03/21 02:45:12;;;;;;;0.75;0.47;;;18.10;48.30;;;;;;4913105;29;20174;-82
2023/03/21 02:47:52;;;;;;;1.45;0.60;;;18.10;48.20;;;;;;4912564;29;20197;-82
2023/03/21 02:50:32;;;;;;;1.17;0.50;;;18.10;48.30;;;;;;4943237;29;20171;-82
2023/03/21 02:52:58;;;;;;;2.10;0.70;;;18.00;48.30;;;;;;4944449;29;20175;-83
2023/03/21 02:55:25;;;;;;;0.60;0.47;;;18.00;48.30;;;;;;4928861;29;20179;-82
2023/03/21 02:57:52;;;;;;;3.30;0.70;;;18.10;48.40;;;;;;4941037;29;20226;-82
2023/03/21 03:00:21;;;;;;;1.48;0.50;;;18.00;48.40;;;;;;4940717;29;20180;-82
2023/03/21 03:02:49;;;;;;;1.38;0.70;;;18.00;48.40;;;;;;4924674;29;20199;-82
2023/03/21 03:05:18;;;;;;;0.50;0.50;;;18.00;48.40;;;;;;4924932;29;20168;-83
2023/03/21 03:07:53;;;;;;;1.88;0.50;;;17.90;48.30;;;;;;4924636;29;20611;-83
2023/03/21 03:10:32;;;;;;;1.65;0.60;;;18.00;48.40;;;;;;4939978;29;20634;-82
2023/03/21 03:13:02;;;;;;;1.05;0.52;;;18.00;48.50;;;;;;4939634;29;20159;-82
2023/03/21 03:15:55;;;;;;;1.55;0.88;;;18.00;48.40;;;;;;4941076;29;20175;-82
2023/03/21 03:18:39;;;;;;;1.95;0.50;;;18.00;48.40;;;;;;4934694;29;20199;-82
2023/03/21 03:21:27;;;;;;;0.57;0.43;;;18.00;48.30;;;;;;4940550;29;20210;-82
2023/03/21 03:23:57;;;;;;;0.68;0.50;;;18.00;48.40;;;;;;4923864;29;20207;-83
2023/03/21 03:26:30;;;;;;;1.35;0.60;;;18.00;48.40;;;;;;4924501;29;20166;-83
2023/03/21 03:29:00;;;;;;;1.35;0.82;;;18.00;48.40;;;;;;4924438;29;20300;-83
2023/03/21 03:31:31;;;;;;;2.00;0.77;;;18.00;48.50;;;;;;4924215;29;20183;-82
2023/03/21 03:33:59;;;;;;;1.63;0.60;;;18.00;48.50;;;;;;4939169;29;20611;-83
2023/03/21 03:36:28;;;;;;;0.50;0.40;;;18.00;48.50;;;;;;4939285;29;20198;-84
2023/03/21 03:38:54;;;;;;;1.17;0.60;;;18.00;48.40;;;;;;4923482;29;20171;-82
2023/03/21 03:41:23;;;;;;;1.50;0.50;;;18.00;48.50;;;;;;4909402;29;20240;-83
2023/03/21 03:43:51;;;;;;;1.35;0.63;;;18.00;48.50;;;;;;4924347;29;20167;-83
2023/03/21 03:46:23;;;;;;;1.35;0.68;;;18.00;48.50;;;;;;4923161;29;20635;-83
2023/03/21 03:48:56;;;;;;;1.73;0.65;;;18.00;48.40;;;;;;4923957;29;20160;-83
2023/03/21 03:51:24;;;;;;;0.70;0.50;;;18.00;48.40;;;;;;4923701;29;20235;-82
2023/03/21 03:54:01;;;;;;;2.10;0.60;;;18.00;48.50;;;;;;4923683;29;20174;-82
2023/03/21 03:56:26;;;;;;;0.65;0.50;;;17.90;48.40;;;;;;4921897;29;20174;-82
2023/03/21 03:58:53;;;;;;;0.82;0.60;;;18.00;48.50;;;;;;4923049;29;20304;-82
2023/03/21 04:01:23;;;;;;;2.35;0.68;;;18.00;49.20;;;;;;4923464;29;20163;-83
2023/03/21 04:03:49;;;;;;;0.63;0.50;;;18.00;48.50;;;;;;4923792;29;20168;-83
2023/03/21 04:06:16;;;;;;;0.90;0.70;;;17.90;48.40;;;;;;4939754;29;20634;-82
2023/03/21 04:08:42;;;;;;;0.50;0.50;;;18.00;48.50;;;;;;4923237;29;20563;-83
2023/03/21 04:11:09;;;;;;;2.92;0.57;;;18.00;48.50;;;;;;4924330;29;20227;-82
2023/03/21 04:13:36;;;;;;;0.50;0.40;;;18.00;48.50;;;;;;4938997;29;20214;-82
2023/03/21 04:16:03;;;;;;;1.00;0.52;;;18.00;48.60;;;;;;4923848;29;20232;-82
2023/03/21 04:18:29;;;;;;;1.38;0.70;;;17.90;48.60;;;;;;4938361;29;20156;-83
2023/03/21 04:20:56;;;;;;;0.93;0.68;;;17.90;48.60;;;;;;4923602;29;20333;-83
2023/03/21 04:23:28;;;;;;;1.33;0.52;;;17.90;48.50;;;;;;4908672;29;20191;-82
2023/03/21 04:25:55;;;;;;;1.67;0.60;;;17.90;48.60;;;;;;4939011;29;20175;-82
2023/03/21 04:28:21;;;;;;;0.80;0.60;;;17.90;48.50;;;;;;4909277;29;20163;-82
2023/03/21 04:30:49;;;;;;;0.82;0.50;;;18.00;48.60;;;;;;4939611;29;20202;-82
2023/03/21 04:33:15;;;;;;;1.83;0.60;;;17.90;48.60;;;;;;4907947;29;20175;-82
2023/03/21 04:35:41;;;;;;;0.95;0.70;;;17.90;48.60;;;;;;4907920;29;20519;-82
2023/03/21 04:38:07;;;;;;;2.28;0.60;;;17.90;48.50;;;;;;4922951;29;20191;-82
2023/03/21 04:40:38;;;;;;;1.17;0.43;;;17.90;48.60;;;;;;4892194;29;20191;-82
2023/03/21 04:43:05;;;;;;;1.35;0.60;;;17.90;48.60;;;;;;4888386;29;20681;-83
2023/03/21 04:45:31;;;;;;;1.35;0.60;;;17.90;48.50;;;;;;4903635;29;20640;-82
2023/03/21 04:47:57;;;;;;;1.17;0.70;;;17.90;48.60;;;;;;4904167;29;20199;-82
2023/03/21 04:50:22;;;;;;;1.70;0.50;;;17.90;48.60;;;;;;4888474;29;20179;-82
2023/03/21 04:52:48;;;;;;;0.95;0.50;;;17.90;48.60;;;;;;4904061;29;20288;-82
2023/03/21 04:55:15;;;;;;;1.90;0.60;;;17.90;48.60;;;;;;4903500;29;20530;-81
2023/03/21 04:57:41;;;;;;;2.63;0.70;;;17.90;48.50;;;;;;4906853;29;20229;-82
2023/03/21 05:00:09;;;;;;;3.05;0.65;;;17.90;48.60;;;;;;4907158;29;20168;-82
2023/03/21 05:02:35;;;;;;;0.80;0.60;;;17.90;48.60;;;;;;4890797;29;20651;-82
2023/03/21 05:05:01;;;;;;;1.35;0.70;;;17.90;48.60;;;;;;4907621;29;20164;-82
2023/03/21 05:07:27;;;;;;;0.63;0.50;;;17.90;48.60;;;;;;4906991;29;20168;-83
2023/03/21 05:09:53;;;;;;;1.58;0.70;;;17.90;48.60;;;;;;4910286;29;20186;-81
2023/03/21 05:12:20;;;;;;;1.67;0.60;;;17.90;48.60;;;;;;4909942;29;20163;-81
2023/03/21 05:14:46;;;;;;;1.17;0.55;;;17.90;48.70;;;;;;4923203;29;20207;-82
2023/03/21 05:17:21;;;;;;;0.63;0.50;;;17.90;48.70;;;;;;4926553;29;20182;-82
2023/03/21 05:19:49;;;;;;;1.67;0.65;;;17.90;48.70;;;;;;4941470;29;20226;-83
2023/03/21 05:22:18;;;;;;;1.05;0.57;;;17.90;48.70;;;;;;4942494;29;20195;-83
2023/03/21 05:24:49;;;;;;;0.73;0.50;;;17.90;48.70;;;;;;4942387;29;20198;-82
2023/03/21 05:27:32;;;;;;;1.55;0.45;;;17.90;48.70;;;;;;4943013;29;20171;-82
2023/03/21 05:30:01;;;;;;;1.23;0.70;;;17.90;48.70;;;;;;4940382;29;20174;-82
2023/03/21 05:32:26;;;;;;;0.50;0.40;;;17.90;48.80;;;;;;4942622;29;20622;-82
2023/03/21 05:34:52;;;;;;;0.82;0.50;;;17.90;48.70;;;;;;4942646;29;20182;-82
2023/03/21 05:37:18;;;;;;;1.67;0.60;;;17.90;48.70;;;;;;4941542;29;20615;-82
2023/03/21 05:39:44;;;;;;;1.00;0.63;;;17.80;48.60;;;;;;4942228;29;20167;-82
2023/03/21 05:42:10;;;;;;;1.05;0.50;;;17.90;48.70;;;;;;4942302;29;20189;-82
2023/03/21 05:44:36;;;;;;;1.58;0.52;;;17.80;48.60;;;;;;4926606;29;20721;-82
2023/03/21 05:47:05;;;;;;;0.80;0.50;;;17.90;48.70;;;;;;4927984;29;20156;-82
2023/03/21 05:49:31;;;;;;;0.93;0.57;;;17.90;48.70;;;;;;4926647;29;20483;-82
2023/03/21 05:51:57;;;;;;;1.00;0.40;;;17.90;48.70;;;;;;4942124;29;20179;-82
2023/03/21 05:54:24;;;;;;;1.05;0.68;;;17.90;48.70;;;;;;4926433;29;20195;-82
2023/03/21 05:56:51;;;;;;;1.00;0.50;;;17.80;48.70;;;;;;4927486;29;20223;-82
2023/03/21 05:59:17;;;;;;;0.73;0.40;;;17.90;48.70;;;;;;4938942;29;20227;-82
2023/03/21 06:01:43;;;;;;;0.75;0.50;;;17.90;48.70;;;;;;4910689;29;20170;-82
2023/03/21 06:04:11;;;;;;;0.63;0.40;;;17.80;48.70;;;;;;4911322;29;20238;-82
2023/03/21 06:06:37;;;;;;;1.98;0.50;;;17.80;48.70;;;;;;4910887;29;20752;-82
2023/03/21 06:09:05;;;;;;;1.23;0.50;;;17.80;48.80;;;;;;4910341;29;20168;-82
2023/03/21 06:11:32;;;;;;;0.85;0.50;;;17.80;48.70;;;;;;4910872;29;20157;-82
2023/03/21 06:13:58;;;;;;;0.50;0.40;;;17.90;48.90;;;;;;4894342;29;20270;-82
2023/03/21 06:16:27;;;;;;;1.77;0.50;;;17.80;48.70;;;;;;4895060;29;20591;-82
2023/03/21 06:18:55;;;;;;;1.15;0.40;;;17.80;48.70;;;;;;4911797;29;20182;-82
2023/03/21 06:21:20;;;;;;;1.35;0.60;;;17.80;48.70;;;;;;4910978;29;20179;-82
2023/03/21 06:23:50;;;;;;;1.10;0.60;;;17.80;48.80;;;;;;4910408;29;20195;-83
2023/03/21 06:26:18;;;;;;;1.27;0.47;;;17.80;48.80;;;;;;4910671;29;20710;-82
2023/03/21 06:28:48;;;;;;;1.70;0.43;;;17.80;48.80;;;;;;4910802;29;20165;-82
2023/03/21 06:31:14;;;;;;;1.08;0.43;;;17.80;48.80;;;;;;4910158;29;20160;-83
2023/03/21 06:33:40;;;;;;;1.27;0.68;;;17.80;48.80;;;;;;4894593;29;20267;-82
2023/03/21 06:36:07;;;;;;;0.88;0.52;;;17.80;48.80;;;;;;4910380;29;20253;-82
2023/03/21 06:38:36;;;;;;;2.38;0.60;;;17.80;48.70;;;;;;4910131;29;20164;-83
2023/03/21 06:41:03;;;;;;;0.88;0.50;;;17.80;48.80;;;;;;4910032;29;20184;-83
2023/03/21 06:43:31;;;;;;;1.05;0.57;;;17.90;48.80;;;;;;4910362;29;20343;-82
2023/03/21 06:45:57;;;;;;;0.95;0.60;;;17.70;48.70;;;;;;4909466;29;20166;-82
2023/03/21 06:48:24;;;;;;;0.82;0.45;;;17.80;48.80;;;;;;4909117;29;20164;-82
2023/03/21 06:50:51;;;;;;;1.65;0.60;;;17.80;48.90;;;;;;4908995;29;20649;-82
2023/03/21 06:53:19;;;;;;;2.58;0.60;;;17.80;49.00;;;;;;4908835;29;20191;-82
2023/03/21 06:55:49;;;;;;;3.17;0.70;;;17.80;49.20;;;;;;4909857;29;20160;-82
2023/03/21 06:58:16;;;;;;;3.70;0.55;;;17.80;49.30;;;;;;4900575;29;20231;-83
2023/03/21 07:00:41;;;;;;;4.22;0.90;;;17.80;49.30;;;;;;4924898;29;20164;-82
2023/03/21 07:03:08;;;;;;;3.92;1.08;;;17.80;49.40;;;;;;4940185;29;20194;-82
2023/03/21 07:05:35;;;;;;;3.42;1.10;;;17.80;49.30;;;;;;4909395;29;20167;-81
2023/03/21 07:08:02;;;;;;;3.75;0.70;;;17.80;49.30;;;;;;4941528;29;20164;-82
2023/03/21 07:10:28;;;;;;;3.10;0.73;;;17.90;49.40;;;;;;4924675;29;20175;-82
2023/03/21 07:13:00;;;;;;;1.30;0.55;;;17.80;49.40;;;;;;4939693;29;20529;-82
2023/03/21 07:15:26;;;;;;;1.77;0.50;;;17.80;49.20;;;;;;4924370;29;20160;-82
2023/03/21 07:17:52;;;;;;;2.75;0.50;;;17.80;49.40;;;;;;4924494;29;20513;-82
2023/03/21 07:20:18;;;;;;;1.55;0.52;;;17.80;49.30;;;;;;4924356;29;20172;-82
2023/03/21 07:22:45;;;;;;;0.73;0.40;;;17.80;49.20;;;;;;4940140;29;20187;-82
2023/03/21 07:25:10;;;;;;;1.52;0.70;;;17.90;49.10;;;;;;4920997;29;20175;-84
2023/03/21 07:27:37;;;;;;;1.48;0.40;;;17.80;49.20;;;;;;4934641;29;20167;-84
2023/03/21 07:30:07;;;;;;;2.05;0.60;;;17.70;49.20;;;;;;4920104;29;20160;-84
2023/03/21 07:32:33;;;;;;;3.10;0.65;;;17.80;49.40;;;;;;4925749;29;20190;-83
2023/03/21 07:35:06;;;;;;;1.85;0.60;;;17.80;49.40;;;;;;4913437;29;20186;-84
2023/03/21 07:37:32;;;;;;;3.40;0.55;;;17.80;49.40;;;;;;4911266;29;20246;-84
2023/03/21 07:40:09;;;;;;;1.08;0.55;;;17.80;49.40;;;;;;4942843;29;20171;-84
2023/03/21 07:42:36;;;;;;;2.08;0.50;;;17.80;49.10;;;;;;4926563;29;20592;-83
2023/03/21 07:45:03;;;;;;;2.42;0.50;;;17.90;49.00;;;;;;4925246;29;20192;-84
2023/03/21 07:47:31;;;;;;;0.70;0.60;;;17.90;48.90;;;;;;4944179;29;20174;-84
2023/03/21 07:49:59;;;;;;;5.43;0.75;;;18.00;48.80;;;;;;4928516;29;20665;-85
2023/03/21 07:52:26;;;;;;;3.78;0.65;;;18.00;48.60;;;;;;4928999;29;20248;-84
2023/03/21 07:54:53;;;;;;;8.98;1.15;;;18.10;48.50;;;;;;4945671;29;20196;-84
2023/03/21 07:57:19;;;;;;;3.10;0.63;;;18.10;48.60;;;;;;4929040;29;20217;-85
2023/03/21 07:59:47;;;;;;;3.90;0.73;;;18.10;48.60;;;;;;4944225;29;20190;-84
2023/03/21 08:02:14;;;;;;;9.57;1.02;;;18.10;48.60;;;;;;4943693;29;20218;-85
2023/03/21 08:04:40;;;;;;;8.30;1.00;;;18.10;48.40;;;;;;4926254;29;20178;-84
2023/03/21 08:07:15;;;;;;;2.88;0.68;;;18.10;48.60;;;;;;4941453;29;20175;-84
2023/03/21 08:09:45;;;;;;;4.10;0.65;;;18.20;48.40;;;;;;4923694;29;20169;-84
2023/03/21 08:12:17;;;;;;;5.70;1.00;;;18.20;48.30;;;;;;4941227;29;20187;-84
2023/03/21 08:14:45;;;;;;;3.22;0.73;;;18.20;48.40;;;;;;4938553;29;20787;-84
2023/03/21 08:17:11;;;;;;;2.00;0.80;;;18.30;48.30;;;;;;4920830;29;20167;-84
2023/03/21 08:19:40;;;;;;;5.65;0.70;;;18.30;48.20;;;;;;4920346;29;20189;-84
2023/03/21 08:22:09;;;;;;;6.57;0.70;;;18.20;48.30;;;;;;4919725;29;20199;-84
2023/03/21 08:24:35;;;;;;;1.67;0.50;;;18.30;48.10;;;;;;4919129;29;20156;-85
2023/03/21 08:27:06;;;;;;;2.13;0.60;;;18.30;48.20;;;;;;4919565;29;20182;-84
2023/03/21 08:29:32;;;;;;;4.88;0.98;;;18.40;48.20;;;;;;4920984;29;20152;-86
2023/03/21 08:31:59;;;;;;;4.82;0.88;;;18.30;48.50;;;;;;4922321;29;20254;-85
2023/03/21 08:34:30;;;;;;;3.28;0.70;;;18.30;48.40;;;;;;4923134;29;20166;-86
2023/03/21 08:36:59;;;;;;;4.25;0.80;;;18.30;49.20;;;;;;4926719;29;20187;-84
2023/03/21 08:39:27;;;;;;;1.40;0.57;;;18.30;48.70;;;;;;4910203;29;20199;-85
2023/03/21 08:42:00;;;;;;;1.92;0.60;;;18.30;48.40;;;;;;4911522;29;20403;-85
2023/03/21 08:44:27;;;;;;;9.45;0.70;;;18.30;48.30;;;;;;4911972;29;20183;-84
2023/03/21 08:47:01;;;;;;;1.90;0.73;;;18.30;48.20;;;;;;4911703;29;20194;-85
2023/03/21 08:49:27;;;;;;;2.95;0.43;;;18.30;48.70;;;;;;4910474;29;20276;-85
2023/03/21 08:51:55;;;;;;;2.92;0.75;;;18.30;48.90;;;;;;4911378;29;20184;-85
2023/03/21 08:54:37;;;;;;;4.32;0.65;;;18.30;48.50;;;;;;4910946;29;20258;-86
2023/03/21 08:57:07;;;;;;;3.97;0.60;;;18.30;48.80;;;;;;4911484;29;20202;-85
2023/03/21 08:59:33;;;;;;;1.55;0.55;;;18.30;49.00;;;;;;4927121;29;20211;-85
2023/03/21 09:02:02;;;;;;;1.80;0.50;;;18.40;48.20;;;;;;4937622;29;20214;-85
2023/03/21 09:04:30;;;;;;;4.20;0.70;;;18.30;48.90;;;;;;4942742;29;20186;-85
2023/03/21 09:07:04;;;;;;;2.30;0.50;;;18.30;48.80;;;;;;4943305;29;20246;-85
2023/03/21 09:09:31;;;;;;;4.20;0.82;;;18.40;48.50;;;;;;4939717;29;20183;-86
2023/03/21 09:12:00;;;;;;;3.42;0.88;;;18.40;48.80;;;;;;4923928;29;20187;-86
2023/03/21 09:14:32;;;;;;;3.17;1.00;;;18.40;48.90;;;;;;4890006;29;20195;-85
2023/03/21 09:17:00;;;;;;;4.15;0.82;;;18.50;48.30;;;;;;4887858;29;20183;-84
2023/03/21 09:19:32;;;;;;;9.45;0.70;;;18.40;48.40;;;;;;4906972;29;20238;-85
2023/03/21 09:21:59;;;;;;;8.07;0.70;;;18.50;49.10;;;;;;4848986;29;20224;-83
2023/03/21 09:24:25;;;;;;;3.42;0.77;;;18.50;48.40;;;;;;4846454;29;20201;-83
2023/03/21 09:26:51;;;;;;;2.03;0.68;;;18.40;48.80;;;;;;4847044;29;20189;-84
2023/03/21 09:29:22;;;;;;;1.35;0.50;;;18.50;48.40;;;;;;4829957;29;20218;-83
2023/03/21 09:31:48;;;;;;;3.22;0.77;;;18.50;48.90;;;;;;4828913;29;20196;-84
2023/03/21 09:34:14;;;;;;;4.72;0.68;;;18.50;48.60;;;;;;4823679;29;20193;-84
2023/03/21 09:36:42;;;;;;;2.25;0.60;;;18.50;48.60;;;;;;4830031;29;20207;-84
2023/03/21 09:39:11;;;;;;;1.08;0.50;;;18.60;48.50;;;;;;4857207;29;20217;-84
2023/03/21 09:41:56;;;;;;;2.90;0.70;;;18.60;48.70;;;;;;4850930;29;20755;-85
2023/03/21 09:44:57;;;;;;;1.10;0.47;;;18.60;48.60;;;;;;4852678;29;20208;-83
2023/03/21 09:47:27;;;;;;;2.92;0.40;;;18.60;48.80;;;;;;4830351;29;20208;-83
2023/03/21 09:49:58;;;;;;;3.72;0.80;;;18.60;49.10;;;;;;4821193;29;20221;-83
2023/03/21 09:52:39;;;;;;;2.88;0.70;;;18.60;48.70;;;;;;4796232;29;20192;-85
2023/03/21 09:55:17;;;;;;;2.95;0.50;;;18.60;48.80;;;;;;4812046;29;20167;-84
2023/03/21 09:57:47;;;;;;;2.20;0.43;;;18.60;48.70;;;;;;4834962;29;20236;-84
2023/03/21 10:00:24;;;;;;;1.10;0.50;;;18.60;48.90;;;;;;4853538;29;20854;-83
2023/03/21 10:03:16;;;;;;;2.42;0.40;;;18.50;48.90;;;;;;4861415;29;20684;-84
2023/03/21 10:05:43;;;;;;;0.95;0.60;;;18.60;49.50;;;;;;4841489;29;20695;-83
2023/03/21 10:08:21;;;;;;;3.15;0.50;;;18.60;49.40;;;;;;4820135;29;20211;-84
2023/03/21 10:10:49;;;;;;;2.78;0.52;;;18.60;49.10;;;;;;4813513;29;20320;-83
2023/03/21 10:13:20;;;;;;;1.27;0.40;;;18.50;49.40;;;;;;4833762;29;20196;-85
2023/03/21 10:15:45;;;;;;;1.70;0.80;;;18.60;49.10;;;;;;4849445;29;20684;-85
2023/03/21 10:18:22;;;;;;;1.27;0.52;;;18.60;48.80;;;;;;4850473;29;20373;-85
2023/03/21 10:20:48;;;;;;;1.30;0.40;;;18.60;49.00;;;;;;4795430;29;20194;-84
2023/03/21 10:23:15;;;;;;;1.42;0.55;;;18.70;49.00;;;;;;4812936;29;20213;-84
2023/03/21 10:26:01;;;;;;;1.05;0.45;;;18.70;48.80;;;;;;4847049;29;20212;-84
2023/03/21 10:28:33;;;;;;;0.80;0.50;;;18.60;48.60;;;;;;4847883;29;20185;-83
2023/03/21 10:31:03;;;;;;;1.23;0.40;;;18.80;48.20;;;;;;4848752;29;20292;-84
2023/03/21 10:33:34;;;;;;;0.40;0.30;;;18.80;48.90;;;;;;4831451;29;20211;-84
2023/03/21 10:36:02;;;;;;;4.30;0.45;;;18.70;48.50;;;;;;4831314;29;20198;-83
2023/03/21 10:38:27;;;;;;;1.15;0.50;;;18.70;48.80;;;;;;4821718;29;20200;-84
2023/03/21 10:40:53;;;;;;;1.20;0.50;;;18.70;48.90;;;;;;4835130;29;20609;-84
2023/03/21 10:43:36;;;;;;;0.98;0.40;;;18.60;48.90;;;;;;4848745;29;20201;-83
2023/03/21 10:46:20;;;;;;;0.50;0.40;;;18.60;49.20;;;;;;4850642;29;20186;-84
2023/03/21 10:48:51;;;;;;;1.50;0.40;;;18.60;49.40;;;;;;4845615;29;20177;-83
2023/03/21 10:51:20;;;;;;;1.33;0.40;;;18.60;49.40;;;;;;4847592;29;20243;-83
2023/03/21 10:53:52;;;;;;;1.52;0.60;;;18.60;49.50;;;;;;4885678;29;20195;-84
2023/03/21 10:56:18;;;;;;;0.45;0.30;;;18.60;48.90;;;;;;4903132;29;20188;-84
2023/03/21 10:58:45;;;;;;;0.40;0.30;;;18.60;49.20;;;;;;4917762;29;20230;-83
2023/03/21 11:01:14;;;;;;;2.67;0.50;;;18.60;49.40;;;;;;4925974;29;20219;-82
2023/03/21 11:03:45;;;;;;;0.80;0.40;;;18.60;49.90;;;;;;4922260;29;20237;-84
2023/03/21 11:06:25;;;;;;;0.55;0.30;;;18.60;49.60;;;;;;4888140;29;20195;-83
2023/03/21 11:08:54;;;;;;;1.23;0.40;;;18.60;49.30;;;;;;4871894;29;20172;-83
2023/03/21 11:11:32;;;;;;;1.27;0.35;;;18.60;49.20;;;;;;4870164;29;20231;-83
2023/03/21 11:14:05;;;;;;;0.40;0.40;;;18.60;49.30;;;;;;4871888;29;20694;-84
2023/03/21 11:16:39;;;;;;;1.15;0.30;;;18.60;49.30;;;;;;4872126;29;20594;-82
2023/03/21 11:19:25;;;;;;;2.67;0.30;;;18.60;49.40;;;;;;4886267;29;20236;-84
2023/03/21 11:21:51;;;;;;;0.30;0.30;;;18.60;49.40;;;;;;4868878;29;20286;-83
2023/03/21 11:24:17;;;;;;;0.63;0.30;;;18.70;49.20;;;;;;4855962;29;20223;-82
2023/03/21 11:26:44;;;;;;;2.60;0.40;;;18.60;49.00;;;;;;4870439;29;20184;-84
2023/03/21 11:29:30;;;;;;;3.40;0.38;;;18.60;48.70;;;;;;4869107;29;20291;-83
2023/03/21 11:31:58;;;;;;;1.02;0.30;;;18.70;49.20;;;;;;4871820;29;20212;-83
2023/03/21 11:34:30;;;;;;;0.52;0.40;;;18.70;49.10;;;;;;4872736;29;20593;-82
2023/03/21 11:36:58;;;;;;;0.82;0.40;;;18.70;49.70;;;;;;4874202;29;20258;-82
2023/03/21 11:39:29;;;;;;;1.10;0.30;;;18.60;48.90;;;;;;4884302;29;20196;-83
2023/03/21 11:41:56;;;;;;;1.02;0.40;;;18.70;49.00;;;;;;4895899;29;20198;-83
2023/03/21 11:44:30;;;;;;;1.23;0.30;;;18.60;48.80;;;;;;4894085;29;20182;-83
2023/03/21 11:46:59;;;;;;;0.55;0.47;;;18.70;48.90;;;;;;4879455;29;20168;-85
2023/03/21 11:49:25;;;;;;;0.95;0.30;;;18.60;49.10;;;;;;4887333;29;20224;-83
2023/03/21 11:52:28;;;;;;;0.30;0.30;;;18.60;48.70;;;;;;4890926;29;20248;-83
2023/03/21 11:55:08;;;;;;;0.50;0.20;;;18.60;48.90;;;;;;4892538;29;20202;-83
2023/03/21 11:57:43;;;;;;;1.02;0.40;;;18.70;48.80;;;;;;4899945;29;20237;-84
2023/03/21 12:00:17;;;;;;;0.30;0.30;;;18.70;48.80;;;;;;4928642;29;20269;-85
2023/03/21 12:03:01;;;;;;;0.45;0.30;;;18.70;48.60;;;;;;4925940;29;20210;-84
2023/03/21 12:05:34;;;;;;;0.17;0.17;;;18.70;48.50;;;;;;4907632;29;20167;-85
2023/03/21 12:08:27;;;;;;;0.30;0.30;;;18.70;48.60;;;;;;4924766;29;20277;-85
2023/03/21 12:11:10;;;;;;;0.50;0.40;;;18.70;48.70;;;;;;4924663;29;20167;-84
2023/03/21 12:13:47;;;;;;;2.17;0.30;;;18.70;48.70;;;;;;4908731;29;20254;-85
2023/03/21 12:16:42;;;;;;;0.40;0.40;;;18.70;48.60;;;;;;4910873;29;20174;-84
2023/03/21 12:19:48;;;;;;;1.23;0.55;;;18.70;48.40;;;;;;4927505;29;20175;-84
2023/03/21 12:22:26;;;;;;;0.30;0.30;;;18.70;48.70;;;;;;4924166;29;20210;-85
2023/03/21 12:24:54;;;;;;;0.55;0.25;;;18.60;48.30;;;;;;4908763;29;20181;-84
2023/03/21 12:27:32;;;;;;;0.30;0.30;;;18.70;48.60;;;;;;4906622;29;20275;-84
2023/03/21 12:30:12;;;;;;;0.75;0.40;;;18.70;48.60;;;;;;4907128;29;20198;-83
2023/03/21 12:32:51;;;;;;;0.30;0.30;;;18.70;48.30;;;;;;4913502;29;20194;-83
2023/03/21 12:35:21;;;;;;;0.35;0.30;;;18.70;48.50;;;;;;4931961;29;20161;-84
2023/03/21 12:38:00;;;;;;;0.60;0.30;;;18.70;48.30;;;;;;4932196;29;20669;-83
2023/03/21 12:40:43;;;;;;;0.75;0.40;;;18.70;48.10;;;;;;4933444;29;20190;-83
2023/03/21 12:43:38;;;;;;;0.65;0.30;;;18.70;48.20;;;;;;4915601;29;20202;-84
2023/03/21 12:46:15;;;;;;;0.20;0.20;;;18.70;48.10;;;;;;4932644;29;20182;-83
2023/03/21 12:48:48;;;;;;;1.85;0.38;;;18.70;48.20;;;;;;4930630;29;20162;-84
2023/03/21 12:51:19;;;;;;;0.38;0.30;;;18.70;48.30;;;;;;4932193;29;20255;-83
2023/03/21 12:54:04;;;;;;;0.60;0.30;;;18.70;48.30;;;;;;4915059;29;20238;-84
2023/03/21 12:56:36;;;;;;;0.65;0.30;;;18.70;47.80;;;;;;4915951;29;20201;-84
2023/03/21 12:59:12;;;;;;;1.25;0.20;;;18.70;47.60;;;;;;4931489;29;20283;-84
2023/03/21 13:01:41;;;;;;;0.47;0.40;;;18.70;48.00;;;;;;4926626;29;20580;-84
2023/03/21 13:04:32;;;;;;;1.60;0.40;;;18.70;48.10;;;;;;4921288;29;20210;-84
2023/03/21 13:07:01;;;;;;;1.10;0.30;;;18.70;48.00;;;;;;4923797;29;20192;-84
2023/03/21 13:09:39;;;;;;;1.60;0.30;;;18.70;48.10;;;;;;4923871;29;20162;-84